Time;durP1;ratioP1;P1;durP2;ratioP2;P2;SDS_P1;SDS_P2;PMS_P1;PMS_P2;Temp;Humidity;BMP_temperature;BMP_pressure;BME280_temperature;BME280_humidity;BME280_pressure;Samples;Min_cycle;Max_cycle;Signal;HPM_P1;HPM_P2
2021/09/06 00:01:06;;;;;;;37.25;22.05;;;;;;;16.76;73.74;101926.50;5074512;28;20041;-74
2021/09/06 00:03:32;;;;;;;38.45;22.38;;;;;;;16.74;74.32;101928.53;5069847;28;20048;-74
2021/09/06 00:05:59;;;;;;;35.10;21.83;;;;;;;16.72;74.11;101924.31;5071362;28;20037;-73
2021/09/06 00:08:26;;;;;;;34.63;22.08;;;;;;;16.69;74.15;101920.13;5072386;28;20041;-74
2021/09/06 00:11:10;;;;;;;41.83;22.38;;;;;;;16.68;74.69;101913.94;5072482;28;20040;-73
2021/09/06 00:13:39;;;;;;;35.45;20.98;;;;;;;16.64;74.01;101917.94;5072383;28;20563;-74
2021/09/06 00:16:06;;;;;;;34.00;21.45;;;;;;;16.61;74.03;101922.81;5071991;28;20049;-73
2021/09/06 00:18:34;;;;;;;39.10;22.23;;;;;;;16.58;74.13;101926.66;5071545;28;20556;-73
2021/09/06 00:21:03;;;;;;;37.70;21.50;;;;;;;16.55;74.40;101926.97;5071207;28;20524;-74
2021/09/06 00:23:30;;;;;;;36.17;22.23;;;;;;;16.48;75.28;101925.94;5072529;28;20086;-74
2021/09/06 00:25:57;;;;;;;36.45;21.58;;;;;;;16.45;74.65;101923.63;5071999;28;20068;-74
2021/09/06 00:28:24;;;;;;;36.40;21.50;;;;;;;16.44;74.63;101929.97;5072190;28;20128;-73
2021/09/06 00:30:51;;;;;;;37.08;21.45;;;;;;;16.38;75.29;101926.09;5071087;28;20063;-74
2021/09/06 00:33:19;;;;;;;38.10;21.85;;;;;;;16.39;75.01;101926.94;5070851;28;20040;-74
2021/09/06 00:35:48;;;;;;;35.95;21.50;;;;;;;16.41;74.65;101924.94;5072255;28;20047;-74
2021/09/06 00:38:17;;;;;;;40.70;21.48;;;;;;;16.43;74.97;101922.94;5071119;28;20047;-74
2021/09/06 00:40:44;;;;;;;37.08;21.67;;;;;;;16.34;76.09;101924.75;5071902;28;20497;-73
2021/09/06 00:43:12;;;;;;;37.08;21.25;;;;;;;16.23;76.26;101930.44;5054334;28;20448;-73
2021/09/06 00:45:39;;;;;;;36.25;21.65;;;;;;;16.25;75.24;101928.44;5071189;28;20071;-74
2021/09/06 00:48:07;;;;;;;35.13;20.90;;;;;;;16.18;75.34;101927.41;5072104;28;20119;-73
2021/09/06 00:50:36;;;;;;;44.42;23.30;;;;;;;16.02;76.46;101938.88;5071145;28;20052;-74
2021/09/06 00:53:03;;;;;;;44.55;22.15;;;;;;;15.90;76.99;101931.13;5071242;28;20079;-74
2021/09/06 00:55:30;;;;;;;39.95;22.30;;;;;;;15.92;77.02;101944.34;5071659;28;20041;-73
2021/09/06 00:57:57;;;;;;;36.67;21.98;;;;;;;16.02;77.54;101930.84;5054146;28;20429;-73
2021/09/06 01:00:25;;;;;;;40.97;23.05;;;;;;;16.04;77.24;101929.66;5072405;28;20123;-74
2021/09/06 01:02:55;;;;;;;39.90;21.52;;;;;;;16.07;77.08;101928.53;5071053;28;20461;-74
2021/09/06 01:05:22;;;;;;;38.40;22.25;;;;;;;16.05;77.24;101927.84;5072706;28;20094;-74
2021/09/06 01:08:09;;;;;;;38.38;22.13;;;;;;;16.05;76.87;101926.00;5070260;28;20044;-74
2021/09/06 01:10:50;;;;;;;37.77;22.90;;;;;;;16.07;76.92;101915.97;5071900;28;20040;-74
2021/09/06 01:13:30;;;;;;;37.38;20.70;;;;;;;16.08;76.65;101914.13;5071782;28;20084;-74
2021/09/06 01:15:57;;;;;;;38.80;22.25;;;;;;;16.01;77.16;101916.63;5068712;28;20462;-74
2021/09/06 01:18:26;;;;;;;41.53;21.23;;;;;;;16.05;76.58;101917.97;5070626;28;20063;-73
2021/09/06 01:20:54;;;;;;;42.90;23.08;;;;;;;16.09;76.51;101922.00;5072200;28;20454;-73
2021/09/06 01:23:31;;;;;;;37.60;21.55;;;;;;;16.08;76.20;101931.03;5075669;28;20048;-74
2021/09/06 01:26:16;;;;;;;42.75;22.00;;;;;;;16.08;76.60;101932.84;5075191;28;20044;-74
2021/09/06 01:28:43;;;;;;;40.55;23.27;;;;;;;16.04;76.95;101932.34;5075388;28;20098;-73
2021/09/06 01:31:10;;;;;;;38.42;23.15;;;;;;;16.00;77.19;101928.31;5073884;28;20048;-73
2021/09/06 01:33:42;;;;;;;41.28;21.80;;;;;;;16.00;76.99;101912.25;5078333;28;20094;-73
2021/09/06 01:36:11;;;;;;;41.17;22.13;;;;;;;15.89;77.29;101920.59;5093565;28;20032;-73
2021/09/06 01:38:38;;;;;;;39.13;21.35;;;;;;;15.89;76.31;101924.09;5067426;28;20071;-73
2021/09/06 01:41:05;;;;;;;37.22;21.75;;;;;;;15.87;77.34;101938.63;5057327;28;20044;-73
2021/09/06 01:43:32;;;;;;;41.80;23.20;;;;;;;15.84;77.68;101933.59;5073738;28;20131;-73
2021/09/06 01:45:59;;;;;;;37.88;22.60;;;;;;;15.91;77.18;101931.97;5075162;28;20067;-73
2021/09/06 01:48:26;;;;;;;37.63;22.42;;;;;;;15.93;77.19;101927.28;5075072;28;20055;-73
2021/09/06 01:50:53;;;;;;;39.40;22.73;;;;;;;15.87;77.57;101933.28;5107726;28;20149;-73
2021/09/06 01:53:21;;;;;;;36.03;21.85;;;;;;;15.87;77.46;101931.44;5074801;28;20052;-73
2021/09/06 01:55:49;;;;;;;44.30;22.92;;;;;;;15.84;77.63;101929.06;5073309;28;20105;-74
2021/09/06 01:58:16;;;;;;;44.08;23.08;;;;;;;15.81;77.73;101936.59;5073197;28;20037;-73
2021/09/06 02:00:43;;;;;;;37.53;21.52;;;;;;;15.77;77.94;101941.44;5075070;28;20102;-73
2021/09/06 02:03:10;;;;;;;39.50;22.20;;;;;;;15.77;77.64;101940.59;5073858;28;20421;-73
2021/09/06 02:05:54;;;;;;;39.85;23.13;;;;;;;15.72;77.62;101941.03;5073765;28;20045;-73
2021/09/06 02:08:33;;;;;;;40.40;22.63;;;;;;;15.73;77.90;101942.72;5074295;28;20045;-73
2021/09/06 02:11:01;;;;;;;38.17;22.58;;;;;;;15.70;78.33;101940.38;5073478;28;20048;-73
2021/09/06 02:13:28;;;;;;;38.08;22.55;;;;;;;15.66;78.03;101958.56;5074507;28;20049;-73
2021/09/06 02:15:55;;;;;;;40.10;23.40;;;;;;;15.65;78.19;101953.38;5076109;28;20051;-73
2021/09/06 02:18:26;;;;;;;38.88;22.52;;;;;;;15.66;77.92;101961.25;5080192;28;20404;-73
2021/09/06 02:20:55;;;;;;;42.40;21.98;;;;;;;15.64;77.81;101952.50;5074840;28;20045;-73
2021/09/06 02:23:22;;;;;;;39.55;23.02;;;;;;;15.62;78.35;101951.84;5054967;28;20037;-73
2021/09/06 02:25:53;;;;;;;39.28;22.52;;;;;;;15.59;78.59;101949.50;5073263;28;20469;-73
2021/09/06 02:28:20;;;;;;;41.15;23.00;;;;;;;15.62;78.67;101951.84;5073116;28;20426;-73
2021/09/06 02:30:48;;;;;;;41.17;22.52;;;;;;;15.57;78.97;101953.31;5073281;28;20098;-73
2021/09/06 02:33:23;;;;;;;37.25;20.92;;;;;;;15.55;78.93;101954.31;5073187;28;20493;-73
2021/09/06 02:36:08;;;;;;;39.65;22.75;;;;;;;15.53;79.09;101947.44;5073152;28;20044;-73
2021/09/06 02:38:35;;;;;;;38.42;22.52;;;;;;;15.52;78.91;101946.59;5074174;28;20136;-73
2021/09/06 02:41:08;;;;;;;36.85;22.45;;;;;;;15.48;79.19;101941.72;5074027;28;20050;-73
2021/09/06 02:43:34;;;;;;;39.30;21.40;;;;;;;15.44;79.24;101946.53;5074180;28;20051;-73
2021/09/06 02:46:01;;;;;;;37.40;20.83;;;;;;;15.45;78.02;101939.38;5073450;28;20059;-73
2021/09/06 02:48:29;;;;;;;36.35;21.80;;;;;;;15.40;78.34;101936.31;5072190;28;20068;-73
2021/09/06 02:50:56;;;;;;;36.28;21.45;;;;;;;15.43;78.27;101942.19;5073908;28;20459;-73
2021/09/06 02:53:24;;;;;;;40.25;22.27;;;;;;;15.41;78.89;101940.66;5074226;28;20051;-73
2021/09/06 02:55:51;;;;;;;39.70;21.38;;;;;;;15.38;78.84;101947.16;5073531;28;20041;-73
2021/09/06 02:58:19;;;;;;;40.58;21.88;;;;;;;15.42;78.27;101950.38;5073645;28;20036;-73
2021/09/06 03:00:50;;;;;;;43.92;22.00;;;;;;;15.40;78.46;101944.34;5088556;28;20060;-73
2021/09/06 03:03:18;;;;;;;40.22;22.45;;;;;;;15.38;79.01;101938.31;5073915;28;20036;-73
2021/09/06 03:05:45;;;;;;;40.30;22.00;;;;;;;15.40;79.07;101939.84;5072339;28;20044;-73
2021/09/06 03:08:14;;;;;;;39.63;21.23;;;;;;;15.30;78.45;101939.94;5073411;28;20044;-73
2021/09/06 03:10:40;;;;;;;39.90;21.90;;;;;;;15.28;78.31;101944.59;5073802;28;20064;-73
2021/09/06 03:13:08;;;;;;;38.47;21.88;;;;;;;15.30;78.50;101950.63;5055273;28;20056;-73
2021/09/06 03:15:34;;;;;;;36.33;21.98;;;;;;;15.23;78.56;101952.25;5073311;28;20047;-73
2021/09/06 03:18:01;;;;;;;53.08;23.08;;;;;;;15.21;79.00;101948.03;5071306;28;20544;-73
2021/09/06 03:20:46;;;;;;;41.67;22.33;;;;;;;15.23;79.49;101949.56;5072343;28;20052;-73
2021/09/06 03:23:13;;;;;;;38.70;21.48;;;;;;;15.16;79.49;101949.34;5106278;28;20452;-73
2021/09/06 03:25:41;;;;;;;39.80;21.42;;;;;;;15.10;79.14;101947.31;5072664;28;20044;-73
2021/09/06 03:28:09;;;;;;;36.63;21.27;;;;;;;15.09;79.61;101944.78;5055451;28;20574;-72
2021/09/06 03:30:37;;;;;;;38.15;22.23;;;;;;;15.12;79.75;101939.13;5073291;28;20086;-73
2021/09/06 03:33:04;;;;;;;37.78;22.08;;;;;;;15.09;79.41;101936.75;5081722;28;20460;-73
2021/09/06 03:35:31;;;;;;;39.35;22.52;;;;;;;15.07;78.68;101942.25;5092479;28;20044;-73
2021/09/06 03:37:58;;;;;;;43.63;22.27;;;;;;;15.11;78.28;101940.94;5087844;28;20068;-73
2021/09/06 03:40:25;;;;;;;37.42;21.50;;;;;;;15.12;78.17;101941.81;5071335;28;20087;-73
2021/09/06 03:42:52;;;;;;;39.05;22.30;;;;;;;15.07;78.94;101942.25;5070951;28;20055;-73
2021/09/06 03:45:19;;;;;;;36.63;21.35;;;;;;;15.05;79.03;101949.59;5071684;28;20119;-73
2021/09/06 03:47:52;;;;;;;38.47;21.42;;;;;;;15.02;79.41;101936.53;5071753;28;20047;-73
2021/09/06 03:50:19;;;;;;;41.15;21.65;;;;;;;15.02;79.50;101946.38;5071540;28;20041;-73
2021/09/06 03:52:46;;;;;;;40.47;21.73;;;;;;;15.01;78.59;101950.03;5072554;28;20040;-73
2021/09/06 03:55:15;;;;;;;38.15;22.17;;;;;;;14.98;78.31;101951.19;5072592;28;20036;-73
2021/09/06 03:57:42;;;;;;;39.13;22.40;;;;;;;14.94;79.02;101948.00;5071499;28;20039;-73
2021/09/06 04:00:09;;;;;;;42.13;21.85;;;;;;;14.96;79.28;101943.34;5054776;28;20041;-73
2021/09/06 04:02:55;;;;;;;37.13;21.55;;;;;;;14.96;79.84;101954.03;5090283;28;20414;-72
2021/09/06 04:05:26;;;;;;;41.63;21.77;;;;;;;14.90;79.81;101953.81;5089084;28;20039;-72
2021/09/06 04:07:56;;;;;;;41.70;22.92;;;;;;;14.85;79.38;101946.25;5089654;28;20096;-72
2021/09/06 04:10:23;;;;;;;42.10;23.35;;;;;;;14.76;79.21;101952.50;5089915;28;20072;-72
2021/09/06 04:12:49;;;;;;;37.22;22.45;;;;;;;14.78;79.35;101950.50;5087234;28;20074;-71
2021/09/06 04:15:16;;;;;;;43.03;22.50;;;;;;;14.75;79.53;101945.47;5088644;28;20054;-72
2021/09/06 04:17:43;;;;;;;42.45;23.65;;;;;;;14.77;78.40;101948.81;5088462;28;20040;-72
2021/09/06 04:20:11;;;;;;;43.88;22.77;;;;;;;14.78;78.32;101954.03;5088843;28;20072;-72
2021/09/06 04:22:39;;;;;;;42.78;23.77;;;;;;;14.75;78.38;101957.00;5089904;28;20044;-72
2021/09/06 04:25:08;;;;;;;44.42;23.73;;;;;;;14.79;77.76;101957.56;5089972;28;20118;-74
2021/09/06 04:27:35;;;;;;;41.67;22.90;;;;;;;14.79;78.05;101962.91;5090098;28;20063;-73
2021/09/06 04:30:04;;;;;;;43.13;22.67;;;;;;;14.75;78.18;101965.03;5089850;28;20048;-72
2021/09/06 04:32:31;;;;;;;43.28;22.27;;;;;;;14.77;78.46;101968.38;5072247;28;20041;-72
2021/09/06 04:34:58;;;;;;;38.70;22.98;;;;;;;14.73;79.42;101971.50;5077030;28;20040;-73
2021/09/06 04:37:26;;;;;;;45.83;24.55;;;;;;;14.67;79.47;101975.59;5090831;28;20119;-72
2021/09/06 04:39:53;;;;;;;43.08;24.95;;;;;;;14.69;79.32;101975.47;5071949;28;20040;-74
2021/09/06 04:42:20;;;;;;;43.47;24.05;;;;;;;14.68;78.64;101981.78;5088452;28;20404;-72
2021/09/06 04:44:47;;;;;;;45.00;24.95;;;;;;;14.66;78.74;101983.78;5089330;28;20070;-72
2021/09/06 04:47:15;;;;;;;41.13;23.15;;;;;;;14.68;79.13;101976.44;5088019;28;20127;-72
2021/09/06 04:49:43;;;;;;;52.78;25.10;;;;;;;14.64;79.42;101981.25;5088086;28;20037;-72
2021/09/06 04:52:21;;;;;;;46.00;23.50;;;;;;;14.60;79.57;101982.53;5088270;28;20064;-72
2021/09/06 04:54:48;;;;;;;42.15;24.13;;;;;;;14.58;79.62;101984.53;5089119;28;20055;-72
2021/09/06 04:57:16;;;;;;;42.85;23.83;;;;;;;14.56;79.67;101986.47;5087473;28;20086;-73
2021/09/06 04:59:45;;;;;;;44.33;23.77;;;;;;;14.56;79.76;101983.81;5089388;28;20493;-73
2021/09/06 05:02:12;;;;;;;44.65;24.52;;;;;;;14.53;80.08;101990.28;5054309;28;20101;-72
2021/09/06 05:04:39;;;;;;;38.88;22.30;;;;;;;14.50;80.15;101984.41;5089147;28;20093;-72
2021/09/06 05:07:08;;;;;;;42.70;23.33;;;;;;;14.50;80.21;101987.91;5071279;28;20127;-73
2021/09/06 05:09:36;;;;;;;47.70;24.52;;;;;;;14.52;80.05;101987.78;5088223;28;20067;-73
2021/09/06 05:12:03;;;;;;;43.55;24.17;;;;;;;14.50;79.84;101989.75;5088459;28;20048;-73
2021/09/06 05:14:35;;;;;;;42.45;24.42;;;;;;;14.48;79.06;102000.59;5075131;28;20040;-73
2021/09/06 05:17:04;;;;;;;47.70;24.42;;;;;;;14.49;79.58;102004.91;5073412;28;20102;-73
2021/09/06 05:19:32;;;;;;;45.50;24.67;;;;;;;14.56;79.62;102007.84;5074147;28;20405;-73
2021/09/06 05:21:58;;;;;;;49.10;24.38;;;;;;;14.59;79.59;102015.59;5075359;28;20098;-73
2021/09/06 05:24:27;;;;;;;43.80;24.20;;;;;;;14.63;79.93;102010.78;5073714;28;20036;-72
2021/09/06 05:26:54;;;;;;;48.85;24.23;;;;;;;14.66;80.36;102015.81;5073092;28;20493;-73
2021/09/06 05:29:22;;;;;;;43.92;23.23;;;;;;;14.68;80.41;102013.84;5057284;28;20041;-72
2021/09/06 05:31:49;;;;;;;44.22;25.10;;;;;;;14.63;80.19;102016.13;5074703;28;20064;-73
2021/09/06 05:34:16;;;;;;;46.95;24.17;;;;;;;14.67;79.17;102014.84;5070065;28;20123;-71
2021/09/06 05:36:43;;;;;;;54.95;24.45;;;;;;;14.65;79.12;102019.50;5073683;28;20094;-71
2021/09/06 05:39:10;;;;;;;49.55;24.52;;;;;;;14.73;79.16;102024.91;5040363;28;20051;-74
2021/09/06 05:41:41;;;;;;;46.28;25.10;;;;;;;14.74;79.87;102014.09;5055588;28;20512;-72
2021/09/06 05:44:08;;;;;;;45.65;24.35;;;;;;;14.78;79.94;102014.63;5073502;28;20052;-72
2021/09/06 05:46:38;;;;;;;48.55;25.02;;;;;;;14.78;80.07;102026.13;5074190;28;20054;-74
2021/09/06 05:49:06;;;;;;;45.03;25.35;;;;;;;14.79;79.34;102027.00;5073122;28;20119;-72
2021/09/06 05:51:37;;;;;;;50.30;24.10;;;;;;;14.85;79.18;102021.03;5072973;28;20044;-72
2021/09/06 05:54:10;;;;;;;44.85;24.48;;;;;;;14.88;79.33;102017.22;5057605;28;20045;-72
2021/09/06 05:56:36;;;;;;;42.17;24.88;;;;;;;14.91;79.46;102019.59;5073903;28;20561;-72
2021/09/06 05:59:04;;;;;;;46.00;24.20;;;;;;;14.91;79.29;102022.25;5074652;28;20516;-74
2021/09/06 06:01:33;;;;;;;49.08;24.52;;;;;;;14.97;79.40;102022.50;5072710;28;20352;-74
2021/09/06 06:04:00;;;;;;;47.33;24.75;;;;;;;14.99;78.78;102022.38;5056119;28;20135;-74
2021/09/06 06:06:32;;;;;;;45.20;25.60;;;;;;;15.05;78.67;102028.94;5074293;28;20044;-74
2021/09/06 06:09:01;;;;;;;44.60;24.90;;;;;;;15.11;78.48;102023.78;5043932;28;20378;-74
2021/09/06 06:11:28;;;;;;;45.97;25.00;;;;;;;15.14;78.93;102033.34;5058252;28;20041;-74
2021/09/06 06:13:55;;;;;;;46.08;25.27;;;;;;;15.19;78.37;102038.22;5073103;28;20113;-73
2021/09/06 06:16:22;;;;;;;49.97;25.77;;;;;;;15.26;78.34;102034.81;5074228;28;20045;-74
2021/09/06 06:18:51;;;;;;;42.55;24.45;;;;;;;15.32;78.14;102030.69;5054790;28;20084;-74
2021/09/06 06:21:21;;;;;;;56.35;26.40;;;;;;;15.33;78.07;102030.53;5074145;28;20044;-72
2021/09/06 06:23:54;;;;;;;44.92;25.88;;;;;;;15.38;77.69;102029.22;5072823;28;20118;-73
2021/09/06 06:26:33;;;;;;;44.55;25.38;;;;;;;15.42;77.47;102027.91;5072063;28;20131;-74
2021/09/06 06:29:02;;;;;;;51.88;26.25;;;;;;;15.50;77.35;102030.66;5073437;28;20542;-73
2021/09/06 06:31:29;;;;;;;47.00;25.85;;;;;;;15.53;77.33;102043.72;5072788;28;20037;-73
2021/09/06 06:33:57;;;;;;;50.53;25.20;;;;;;;15.53;77.65;102036.53;5072839;28;20041;-73
2021/09/06 06:36:25;;;;;;;49.97;26.17;;;;;;;15.62;77.70;102041.94;5039184;28;20048;-73
2021/09/06 06:38:59;;;;;;;50.00;26.65;;;;;;;15.65;77.28;102037.13;5072712;28;20060;-73
2021/09/06 06:41:26;;;;;;;49.95;26.15;;;;;;;15.71;77.40;102041.84;5065109;28;20036;-70
2021/09/06 06:44:04;;;;;;;45.97;26.17;;;;;;;15.79;77.47;102040.25;5073195;28;20086;-69
2021/09/06 06:46:32;;;;;;;52.17;26.50;;;;;;;15.87;76.95;102046.50;5073363;28;20063;-69
2021/09/06 06:48:59;;;;;;;48.10;26.08;;;;;;;15.91;77.45;102055.06;5071052;28;20497;-71
2021/09/06 06:51:31;;;;;;;55.20;27.60;;;;;;;15.92;77.33;102052.22;5073231;28;20044;-70
2021/09/06 06:53:58;;;;;;;47.17;26.98;;;;;;;15.96;77.85;102054.59;5073231;28;20574;-68
2021/09/06 06:56:28;;;;;;;47.22;26.95;;;;;;;15.91;77.73;102053.22;5073882;28;20075;-67
2021/09/06 06:59:00;;;;;;;50.88;26.10;;;;;;;16.03;78.38;102055.66;5073293;28;20048;-68
2021/09/06 07:01:28;;;;;;;48.92;26.88;;;;;;;16.08;77.65;102066.69;5081053;28;20150;-68
2021/09/06 07:03:55;;;;;;;48.25;25.92;;;;;;;16.20;77.73;102062.75;5093626;28;20067;-68
2021/09/06 07:06:22;;;;;;;45.80;25.27;;;;;;;16.21;77.86;102063.59;5091189;28;20066;-68
2021/09/06 07:08:48;;;;;;;49.03;26.83;;;;;;;16.28;77.15;102068.16;5058727;28;20040;-68
2021/09/06 07:11:15;;;;;;;52.25;26.67;;;;;;;16.33;77.40;102067.66;5092787;28;20040;-68
2021/09/06 07:13:43;;;;;;;48.45;26.95;;;;;;;16.40;76.72;102073.25;5058524;28;20059;-68
2021/09/06 07:16:10;;;;;;;44.95;26.08;;;;;;;16.44;76.16;102077.25;5074806;28;20101;-67
2021/09/06 07:18:37;;;;;;;45.10;24.75;;;;;;;16.56;76.65;102080.50;5093147;28;20044;-68
2021/09/06 07:21:04;;;;;;;47.22;25.80;;;;;;;16.59;76.64;102077.50;5074925;28;20471;-68
2021/09/06 07:23:31;;;;;;;45.78;26.17;;;;;;;16.66;76.66;102084.75;5075023;28;20510;-68
2021/09/06 07:25:58;;;;;;;49.33;25.88;;;;;;;16.74;76.45;102086.59;5092762;28;20123;-67
2021/09/06 07:28:25;;;;;;;47.50;25.48;;;;;;;16.74;75.66;102086.59;5092736;28;20036;-68
2021/09/06 07:30:54;;;;;;;45.90;26.23;;;;;;;16.99;74.82;102089.38;5040731;28;20504;-68
2021/09/06 07:33:21;;;;;;;46.58;25.98;;;;;;;17.10;74.30;102088.22;5055248;28;20163;-68
2021/09/06 07:35:48;;;;;;;45.22;24.98;;;;;;;17.05;74.61;102091.41;5064151;28;20144;-68
2021/09/06 07:38:17;;;;;;;45.88;24.73;;;;;;;17.19;73.51;102096.16;5062423;28;20051;-67
2021/09/06 07:40:44;;;;;;;42.05;24.40;;;;;;;17.34;72.90;102101.69;5072076;28;20068;-67
2021/09/06 07:43:10;;;;;;;49.67;24.85;;;;;;;17.34;73.62;102095.50;5091612;28;20050;-68
2021/09/06 07:45:37;;;;;;;45.88;23.63;;;;;;;17.38;73.36;102104.88;5070287;28;20070;-68
2021/09/06 07:48:04;;;;;;;43.08;23.77;;;;;;;17.32;72.23;102092.13;5073355;28;20509;-67
2021/09/06 07:50:50;;;;;;;44.83;24.27;;;;;;;17.57;71.14;102103.72;5079679;28;20517;-67
2021/09/06 07:53:17;;;;;;;41.55;23.73;;;;;;;17.58;70.00;102106.22;5067926;28;20101;-69
2021/09/06 07:55:43;;;;;;;46.97;26.40;;;;;;;17.70;69.59;102097.84;5047966;28;20378;-68
2021/09/06 07:58:11;;;;;;;43.70;24.88;;;;;;;17.60;70.35;102101.53;5088418;28;20058;-70
2021/09/06 08:00:39;;;;;;;41.80;24.42;;;;;;;17.61;70.59;102100.53;5057052;28;20036;-69
2021/09/06 08:03:06;;;;;;;46.20;25.58;;;;;;;17.84;69.24;102103.41;5052047;28;20501;-68
2021/09/06 08:05:35;;;;;;;50.78;28.00;;;;;;;17.92;69.28;102107.09;5036538;28;20040;-69
2021/09/06 08:08:08;;;;;;;46.53;26.27;;;;;;;18.06;68.96;102113.63;5073437;28;20040;-68
2021/09/06 08:10:36;;;;;;;53.30;26.55;;;;;;;18.07;69.83;102120.69;5071021;28;20036;-67
2021/09/06 08:13:03;;;;;;;51.50;27.77;;;;;;;18.18;68.84;102123.00;5071713;28;20683;-67
2021/09/06 08:15:32;;;;;;;47.97;27.67;;;;;;;18.30;69.27;102121.66;5054481;28;20048;-68
2021/09/06 08:18:04;;;;;;;49.22;26.50;;;;;;;18.27;69.37;102116.59;5094635;28;20067;-68
2021/09/06 08:20:34;;;;;;;44.97;26.95;;;;;;;18.35;69.39;102121.94;5073741;28;20524;-67
2021/09/06 08:23:02;;;;;;;45.67;25.38;;;;;;;18.38;69.32;102124.28;5054505;28;20131;-68
2021/09/06 08:25:29;;;;;;;46.13;27.08;;;;;;;18.49;69.01;102124.94;5073644;28;20047;-69
2021/09/06 08:27:57;;;;;;;46.72;26.70;;;;;;;18.57;69.07;102125.75;5089909;28;20051;-69
2021/09/06 08:30:24;;;;;;;46.40;25.13;;;;;;;18.70;69.20;102124.34;5089763;28;20415;-68
2021/09/06 08:32:52;;;;;;;51.20;26.65;;;;;;;18.83;68.62;102131.88;5087668;28;20076;-69
2021/09/06 08:35:19;;;;;;;47.05;25.73;;;;;;;18.96;68.36;102132.19;5088900;28;20488;-68
2021/09/06 08:37:46;;;;;;;46.67;26.98;;;;;;;19.19;68.43;102129.50;5068943;28;20043;-68
2021/09/06 08:40:13;;;;;;;47.97;26.45;;;;;;;19.65;65.51;102131.41;5043339;28;20040;-68
2021/09/06 08:42:41;;;;;;;48.80;26.60;;;;;;;19.61;66.01;102124.69;5058311;28;20039;-68
2021/09/06 08:45:11;;;;;;;47.35;26.27;;;;;;;19.86;65.52;102130.72;5057852;28;20047;-69
2021/09/06 08:47:39;;;;;;;50.15;28.35;;;;;;;19.66;65.46;102130.38;5074278;28;20048;-69
2021/09/06 08:50:11;;;;;;;46.80;26.13;;;;;;;19.83;65.72;102129.25;5060894;28;20050;-69
2021/09/06 08:52:41;;;;;;;49.63;26.20;;;;;;;20.13;64.43;102135.50;5077536;28;20040;-69
2021/09/06 08:55:09;;;;;;;51.38;27.15;;;;;;;20.23;63.48;102120.94;5096659;28;20047;-68
2021/09/06 08:57:37;;;;;;;45.80;25.83;;;;;;;20.37;62.97;102127.38;5081162;28;20043;-70
2021/09/06 09:00:05;;;;;;;50.33;25.25;;;;;;;20.40;63.42;102129.69;5066047;28;20123;-69
2021/09/06 09:02:51;;;;;;;45.08;26.25;;;;;;;20.73;62.14;102138.25;5093394;28;20052;-68
2021/09/06 09:05:30;;;;;;;49.85;26.20;;;;;;;20.87;62.18;102126.63;5091224;28;20044;-68
2021/09/06 09:08:21;;;;;;;50.65;26.60;;;;;;;20.97;62.42;102133.56;5073649;28;20095;-68
2021/09/06 09:11:00;;;;;;;46.50;26.27;;;;;;;21.24;61.45;102132.00;5076307;28;20044;-68
2021/09/06 09:13:46;;;;;;;50.03;26.52;;;;;;;21.26;60.58;102135.34;5094103;28;20403;-68
2021/09/06 09:16:30;;;;;;;44.83;26.25;;;;;;;21.53;59.52;102138.38;5090831;28;20044;-68
2021/09/06 09:19:22;;;;;;;50.28;25.52;;;;;;;21.79;58.96;102143.16;5090315;28;20450;-68
2021/09/06 09:22:12;;;;;;;42.85;25.38;;;;;;;22.45;56.04;102129.34;5093255;28;20451;-68
2021/09/06 09:25:01;;;;;;;51.90;26.35;;;;;;;23.93;52.30;102126.81;5061581;28;20036;-68
2021/09/06 09:27:38;;;;;;;39.58;24.10;;;;;;;25.20;48.43;102126.41;5072466;28;20422;-67
2021/09/06 09:30:23;;;;;;;45.85;25.48;;;;;;;26.09;46.61;102125.53;5056032;28;20048;-68
2021/09/06 09:33:13;;;;;;;42.85;26.27;;;;;;;26.97;44.01;102125.16;5058501;28;20067;-67
2021/09/06 09:36:00;;;;;;;51.90;26.38;;;;;;;27.45;42.03;102125.31;5080171;28;20092;-68
2021/09/06 09:38:34;;;;;;;55.10;25.75;;;;;;;27.97;41.28;102122.81;5049312;28;20501;-70
2021/09/06 09:41:03;;;;;;;42.72;25.70;;;;;;;28.25;40.49;102121.22;5037180;28;20512;-70
2021/09/06 09:43:32;;;;;;;44.40;27.25;;;;;;;28.89;38.17;102127.50;5043062;28;20046;-70
2021/09/06 09:46:04;;;;;;;44.88;27.77;;;;;;;28.11;39.35;102121.50;5058832;28;20039;-70
2021/09/06 09:48:41;;;;;;;46.15;27.90;;;;;;;28.38;39.39;102128.31;5072034;28;20042;-70
2021/09/06 09:51:08;;;;;;;46.28;27.52;;;;;;;28.76;38.44;102129.69;5074248;28;20062;-71
2021/09/06 09:53:37;;;;;;;45.80;25.65;;;;;;;29.22;38.04;102127.84;5087941;28;20040;-71
2021/09/06 09:56:05;;;;;;;50.55;28.38;;;;;;;29.44;37.09;102123.31;5069734;28;20036;-71
2021/09/06 09:58:32;;;;;;;53.85;25.45;;;;;;;29.99;36.54;102123.66;5067778;28;20048;-71
2021/09/06 10:01:02;;;;;;;54.15;26.70;;;;;;;30.18;35.24;102121.44;5086209;28;20060;-71
2021/09/06 10:03:33;;;;;;;42.70;25.35;;;;;;;30.42;35.26;102108.38;5087227;28;20093;-73
2021/09/06 10:06:01;;;;;;;48.67;26.98;;;;;;;30.46;35.20;102119.66;5085633;28;20059;-72
2021/09/06 10:08:28;;;;;;;45.53;24.23;;;;;;;30.31;35.82;102115.59;5067274;28;20037;-72
2021/09/06 10:10:56;;;;;;;49.35;25.17;;;;;;;29.61;36.49;102120.56;5091317;28;20048;-73
2021/09/06 10:13:25;;;;;;;49.42;25.77;;;;;;;29.05;35.94;102114.13;5069108;28;20059;-73
2021/09/06 10:16:03;;;;;;;43.83;24.10;;;;;;;28.70;36.67;102112.38;5073127;28;20376;-73
2021/09/06 10:18:40;;;;;;;43.20;24.45;;;;;;;28.49;38.63;102114.66;5056626;28;20068;-72
2021/09/06 10:21:14;;;;;;;35.47;20.42;;;;;;;28.40;36.54;102118.00;5074473;28;20097;-73
2021/09/06 10:23:43;;;;;;;28.50;17.63;;;;;;;28.20;35.21;102110.19;5071979;28;20032;-71
2021/09/06 10:26:12;;;;;;;32.47;19.42;;;;;;;28.02;35.92;102108.47;5090819;28;20569;-72
2021/09/06 10:28:40;;;;;;;32.95;18.88;;;;;;;27.92;35.36;102115.34;5056799;28;20044;-71
2021/09/06 10:31:22;;;;;;;34.58;18.98;;;;;;;27.68;36.88;102117.19;5087668;28;20040;-71
2021/09/06 10:34:04;;;;;;;32.22;18.98;;;;;;;27.56;35.68;102109.00;5069988;28;20568;-72
2021/09/06 10:36:31;;;;;;;32.67;19.08;;;;;;;27.24;38.19;102115.78;5034696;28;20131;-71
2021/09/06 10:39:08;;;;;;;32.40;19.02;;;;;;;26.62;39.05;102108.66;5073052;28;20036;-69
2021/09/06 10:41:46;;;;;;;35.78;19.00;;;;;;;26.50;40.45;102105.84;5051018;28;20496;-68
2021/09/06 10:44:14;;;;;;;43.05;20.05;;;;;;;26.33;40.77;102099.38;5086527;28;20408;-69
2021/09/06 10:46:56;;;;;;;31.58;17.30;;;;;;;26.20;38.59;102103.88;5088211;28;20089;-67
2021/09/06 10:49:31;;;;;;;31.55;17.88;;;;;;;25.95;39.97;102103.94;5069899;28;20653;-67
2021/09/06 10:51:59;;;;;;;27.00;16.50;;;;;;;26.01;39.36;102096.75;5073771;28;20082;-68
2021/09/06 10:54:28;;;;;;;27.17;16.77;;;;;;;26.13;40.37;102099.59;5073618;28;20497;-68
2021/09/06 10:56:57;;;;;;;29.02;16.65;;;;;;;26.22;41.14;102101.78;5092311;28;20101;-68
2021/09/06 10:59:25;;;;;;;27.60;16.45;;;;;;;26.11;40.72;102096.25;5092250;28;20453;-68
2021/09/06 11:01:56;;;;;;;23.05;15.18;;;;;;;26.14;38.17;102099.38;5087986;28;20576;-67
2021/09/06 11:04:27;;;;;;;28.23;15.93;;;;;;;26.16;38.61;102097.25;5083605;28;20193;-68
2021/09/06 11:07:04;;;;;;;30.30;17.67;;;;;;;25.91;39.63;102104.59;5059252;28;20054;-67
2021/09/06 11:09:34;;;;;;;36.15;22.00;;;;;;;25.97;40.36;102103.72;5084244;28;20047;-66
2021/09/06 11:12:04;;;;;;;32.00;17.50;;;;;;;25.74;40.03;102102.44;5088340;28;20036;-67
2021/09/06 11:14:36;;;;;;;32.47;19.38;;;;;;;25.72;40.67;102098.25;5067693;28;20159;-69
2021/09/06 11:17:24;;;;;;;31.55;20.05;;;;;;;25.77;40.34;102103.88;5070427;28;20086;-67
2021/09/06 11:19:55;;;;;;;26.48;15.05;;;;;;;25.61;41.09;102103.38;5069913;28;20037;-69
2021/09/06 11:22:28;;;;;;;26.33;14.02;;;;;;;25.44;40.75;102105.78;5068383;28;20058;-68